sensor_id;sensor_type;location;lat;lon;timestamp;P1;durP1;ratioP1;P2;durP2;ratioP2
4694;SDS011;2361;49.540;8.390;2022-08-03T00:01:37;5.40;;;3.60;;
4694;SDS011;2361;49.540;8.390;2022-08-03T00:04:08;3.27;;;3.07;;
4694;SDS011;2361;49.540;8.390;2022-08-03T00:06:36;4.50;;;3.67;;
4694;SDS011;2361;49.540;8.390;2022-08-03T00:09:03;3.17;;;2.83;;
4694;SDS011;2361;49.540;8.390;2022-08-03T00:11:31;3.30;;;3.10;;
4694;SDS011;2361;49.540;8.390;2022-08-03T00:13:58;3.70;;;3.40;;
4694;SDS011;2361;49.540;8.390;2022-08-03T00:16:25;6.10;;;3.50;;
4694;SDS011;2361;49.540;8.390;2022-08-03T00:18:52;20.43;;;3.83;;
4694;SDS011;2361;49.540;8.390;2022-08-03T00:21:19;4.73;;;3.50;;
4694;SDS011;2361;49.540;8.390;2022-08-03T00:23:46;3.97;;;3.13;;
4694;SDS011;2361;49.540;8.390;2022-08-03T00:26:18;14.13;;;4.23;;
4694;SDS011;2361;49.540;8.390;2022-08-03T00:28:46;3.30;;;3.00;;
4694;SDS011;2361;49.540;8.390;2022-08-03T00:31:14;3.23;;;3.03;;
4694;SDS011;2361;49.540;8.390;2022-08-03T00:33:41;3.20;;;2.90;;
4694;SDS011;2361;49.540;8.390;2022-08-03T00:36:28;3.63;;;3.00;;
4694;SDS011;2361;49.540;8.390;2022-08-03T00:38:55;3.33;;;2.90;;
4694;SDS011;2361;49.540;8.390;2022-08-03T00:41:22;2.53;;;2.43;;
4694;SDS011;2361;49.540;8.390;2022-08-03T00:43:48;4.20;;;2.60;;
4694;SDS011;2361;49.540;8.390;2022-08-03T00:46:16;2.90;;;2.70;;
4694;SDS011;2361;49.540;8.390;2022-08-03T00:48:49;3.13;;;2.83;;
4694;SDS011;2361;49.540;8.390;2022-08-03T00:51:17;2.90;;;2.80;;
4694;SDS011;2361;49.540;8.390;2022-08-03T00:53:46;2.43;;;2.33;;
4694;SDS011;2361;49.540;8.390;2022-08-03T00:56:15;3.27;;;2.97;;
4694;SDS011;2361;49.540;8.390;2022-08-03T00:58:43;3.73;;;2.90;;
4694;SDS011;2361;49.540;8.390;2022-08-03T01:01:11;4.07;;;2.60;;
4694;SDS011;2361;49.540;8.390;2022-08-03T01:03:39;3.30;;;3.00;;
4694;SDS011;2361;49.540;8.390;2022-08-03T01:06:10;4.93;;;2.90;;
4694;SDS011;2361;49.540;8.390;2022-08-03T01:08:50;3.53;;;3.10;;
4694;SDS011;2361;49.540;8.390;2022-08-03T01:11:49;3.40;;;3.20;;
4694;SDS011;2361;49.540;8.390;2022-08-03T01:14:38;2.80;;;2.60;;
4694;SDS011;2361;49.540;8.390;2022-08-03T01:20:07;3.77;;;3.37;;
4694;SDS011;2361;49.540;8.390;2022-08-03T01:32:00;3.10;;;2.90;;
4694;SDS011;2361;49.540;8.390;2022-08-03T01:35:15;3.83;;;3.47;;
4694;SDS011;2361;49.540;8.390;2022-08-03T01:37:51;3.30;;;3.10;;
4694;SDS011;2361;49.540;8.390;2022-08-03T01:40:25;4.23;;;3.90;;
4694;SDS011;2361;49.540;8.390;2022-08-03T01:42:53;4.00;;;3.60;;
4694;SDS011;2361;49.540;8.390;2022-08-03T01:45:23;4.83;;;3.57;;
4694;SDS011;2361;49.540;8.390;2022-08-03T01:47:52;3.73;;;3.43;;
4694;SDS011;2361;49.540;8.390;2022-08-03T01:50:21;4.00;;;3.67;;
4694;SDS011;2361;49.540;8.390;2022-08-03T01:52:53;4.73;;;3.77;;
4694;SDS011;2361;49.540;8.390;2022-08-03T01:55:22;4.20;;;3.80;;
4694;SDS011;2361;49.540;8.390;2022-08-03T01:57:54;4.17;;;3.83;;
4694;SDS011;2361;49.540;8.390;2022-08-03T02:00:32;8.37;;;4.07;;
4694;SDS011;2361;49.540;8.390;2022-08-03T02:03:04;4.50;;;3.57;;
4694;SDS011;2361;49.540;8.390;2022-08-03T02:05:32;4.80;;;3.70;;
4694;SDS011;2361;49.540;8.390;2022-08-03T02:08:00;3.80;;;3.40;;
4694;SDS011;2361;49.540;8.390;2022-08-03T02:10:30;4.30;;;3.53;;
4694;SDS011;2361;49.540;8.390;2022-08-03T02:13:01;4.07;;;3.67;;
4694;SDS011;2361;49.540;8.390;2022-08-03T02:15:31;4.07;;;3.67;;
4694;SDS011;2361;49.540;8.390;2022-08-03T02:18:02;4.07;;;3.77;;
4694;SDS011;2361;49.540;8.390;2022-08-03T02:20:33;3.97;;;3.03;;
4694;SDS011;2361;49.540;8.390;2022-08-03T02:23:02;3.63;;;3.33;;
4694;SDS011;2361;49.540;8.390;2022-08-03T02:25:32;3.90;;;3.43;;
4694;SDS011;2361;49.540;8.390;2022-08-03T02:28:11;5.40;;;3.87;;
4694;SDS011;2361;49.540;8.390;2022-08-03T02:30:45;3.60;;;3.30;;
4694;SDS011;2361;49.540;8.390;2022-08-03T02:33:26;3.67;;;3.37;;
4694;SDS011;2361;49.540;8.390;2022-08-03T02:35:58;7.60;;;3.20;;
4694;SDS011;2361;49.540;8.390;2022-08-03T02:38:30;3.83;;;3.53;;
4694;SDS011;2361;49.540;8.390;2022-08-03T02:40:59;4.83;;;3.57;;
4694;SDS011;2361;49.540;8.390;2022-08-03T02:43:32;4.10;;;3.80;;
4694;SDS011;2361;49.540;8.390;2022-08-03T02:46:23;3.73;;;3.20;;
4694;SDS011;2361;49.540;8.390;2022-08-03T02:49:02;3.60;;;3.30;;
4694;SDS011;2361;49.540;8.390;2022-08-03T02:51:51;3.80;;;3.50;;
4694;SDS011;2361;49.540;8.390;2022-08-03T02:54:20;3.83;;;3.40;;
4694;SDS011;2361;49.540;8.390;2022-08-03T02:56:50;3.93;;;3.63;;
4694;SDS011;2361;49.540;8.390;2022-08-03T02:59:20;3.87;;;3.50;;
4694;SDS011;2361;49.540;8.390;2022-08-03T03:01:48;4.53;;;3.63;;
4694;SDS011;2361;49.540;8.390;2022-08-03T03:04:16;3.80;;;3.27;;
4694;SDS011;2361;49.540;8.390;2022-08-03T03:06:46;3.63;;;3.33;;
4694;SDS011;2361;49.540;8.390;2022-08-03T03:09:14;8.80;;;3.90;;
4694;SDS011;2361;49.540;8.390;2022-08-03T03:11:42;4.00;;;3.60;;
4694;SDS011;2361;49.540;8.390;2022-08-03T03:14:10;4.37;;;3.90;;
4694;SDS011;2361;49.540;8.390;2022-08-03T03:16:39;4.50;;;3.73;;
4694;SDS011;2361;49.540;8.390;2022-08-03T03:19:08;7.00;;;3.70;;
4694;SDS011;2361;49.540;8.390;2022-08-03T03:21:38;4.77;;;3.70;;
4694;SDS011;2361;49.540;8.390;2022-08-03T03:24:06;7.03;;;3.70;;
4694;SDS011;2361;49.540;8.390;2022-08-03T03:26:34;4.00;;;3.47;;
4694;SDS011;2361;49.540;8.390;2022-08-03T03:29:07;6.13;;;4.00;;
4694;SDS011;2361;49.540;8.390;2022-08-03T03:31:34;5.80;;;3.60;;
4694;SDS011;2361;49.540;8.390;2022-08-03T03:34:02;5.90;;;3.80;;
4694;SDS011;2361;49.540;8.390;2022-08-03T03:36:31;3.70;;;3.40;;
4694;SDS011;2361;49.540;8.390;2022-08-03T03:38:58;4.13;;;3.70;;
4694;SDS011;2361;49.540;8.390;2022-08-03T03:41:41;3.73;;;3.40;;
4694;SDS011;2361;49.540;8.390;2022-08-03T03:44:08;5.23;;;3.80;;
4694;SDS011;2361;49.540;8.390;2022-08-03T03:46:36;6.53;;;3.80;;
4694;SDS011;2361;49.540;8.390;2022-08-03T03:49:04;3.40;;;3.13;;
4694;SDS011;2361;49.540;8.390;2022-08-03T03:51:35;4.20;;;3.80;;
4694;SDS011;2361;49.540;8.390;2022-08-03T03:54:02;3.93;;;3.53;;
4694;SDS011;2361;49.540;8.390;2022-08-03T03:56:32;6.37;;;4.00;;
4694;SDS011;2361;49.540;8.390;2022-08-03T03:59:01;5.00;;;3.77;;
4694;SDS011;2361;49.540;8.390;2022-08-03T04:01:28;3.83;;;3.53;;
4694;SDS011;2361;49.540;8.390;2022-08-03T04:03:56;3.53;;;3.30;;
4694;SDS011;2361;49.540;8.390;2022-08-03T04:06:23;3.90;;;3.57;;
4694;SDS011;2361;49.540;8.390;2022-08-03T04:09:09;4.50;;;3.60;;
4694;SDS011;2361;49.540;8.390;2022-08-03T04:11:56;6.63;;;3.90;;
4694;SDS011;2361;49.540;8.390;2022-08-03T04:14:27;4.03;;;3.60;;
4694;SDS011;2361;49.540;8.390;2022-08-03T04:17:01;3.80;;;3.50;;
4694;SDS011;2361;49.540;8.390;2022-08-03T04:19:33;3.90;;;3.70;;
4694;SDS011;2361;49.540;8.390;2022-08-03T04:22:09;8.93;;;3.77;;
4694;SDS011;2361;49.540;8.390;2022-08-03T04:24:47;4.40;;;4.00;;
4694;SDS011;2361;49.540;8.390;2022-08-03T04:27:22;3.97;;;3.67;;
4694;SDS011;2361;49.540;8.390;2022-08-03T04:29:54;4.17;;;3.80;;
4694;SDS011;2361;49.540;8.390;2022-08-03T04:32:23;4.23;;;3.77;;
4694;SDS011;2361;49.540;8.390;2022-08-03T04:34:53;4.13;;;3.67;;
4694;SDS011;2361;49.540;8.390;2022-08-03T04:40:13;4.23;;;3.90;;
4694;SDS011;2361;49.540;8.390;2022-08-03T04:42:55;8.80;;;3.83;;
4694;SDS011;2361;49.540;8.390;2022-08-03T04:45:24;3.90;;;3.50;;
4694;SDS011;2361;49.540;8.390;2022-08-03T04:47:54;4.07;;;3.67;;
4694;SDS011;2361;49.540;8.390;2022-08-03T04:50:21;4.27;;;3.87;;
4694;SDS011;2361;49.540;8.390;2022-08-03T04:52:48;4.67;;;4.17;;
4694;SDS011;2361;49.540;8.390;2022-08-03T04:55:29;4.00;;;3.60;;
4694;SDS011;2361;49.540;8.390;2022-08-03T04:57:58;3.97;;;3.67;;
4694;SDS011;2361;49.540;8.390;2022-08-03T05:00:26;5.13;;;3.40;;
4694;SDS011;2361;49.540;8.390;2022-08-03T05:02:53;4.30;;;3.33;;
4694;SDS011;2361;49.540;8.390;2022-08-03T05:05:21;4.90;;;3.90;;
4694;SDS011;2361;49.540;8.390;2022-08-03T05:07:49;4.13;;;3.73;;
4694;SDS011;2361;49.540;8.390;2022-08-03T05:10:16;4.97;;;4.17;;
4694;SDS011;2361;49.540;8.390;2022-08-03T05:12:44;6.40;;;4.17;;
4694;SDS011;2361;49.540;8.390;2022-08-03T05:15:13;5.23;;;4.63;;
4694;SDS011;2361;49.540;8.390;2022-08-03T05:17:40;5.17;;;4.70;;
4694;SDS011;2361;49.540;8.390;2022-08-03T05:20:07;6.80;;;4.90;;
4694;SDS011;2361;49.540;8.390;2022-08-03T05:22:35;5.30;;;4.03;;
4694;SDS011;2361;49.540;8.390;2022-08-03T05:25:02;5.50;;;4.50;;
4694;SDS011;2361;49.540;8.390;2022-08-03T05:27:29;6.20;;;4.30;;
4694;SDS011;2361;49.540;8.390;2022-08-03T05:29:56;4.60;;;4.20;;
4694;SDS011;2361;49.540;8.390;2022-08-03T05:32:44;4.10;;;3.80;;
4694;SDS011;2361;49.540;8.390;2022-08-03T05:35:10;5.20;;;4.30;;
4694;SDS011;2361;49.540;8.390;2022-08-03T05:37:57;5.67;;;4.70;;
4694;SDS011;2361;49.540;8.390;2022-08-03T05:40:24;4.77;;;3.90;;
4694;SDS011;2361;49.540;8.390;2022-08-03T05:42:52;5.87;;;4.37;;
4694;SDS011;2361;49.540;8.390;2022-08-03T05:45:18;4.40;;;4.00;;
4694;SDS011;2361;49.540;8.390;2022-08-03T05:47:50;4.77;;;3.90;;
4694;SDS011;2361;49.540;8.390;2022-08-03T05:50:17;5.40;;;3.90;;
4694;SDS011;2361;49.540;8.390;2022-08-03T05:52:45;4.10;;;3.73;;
4694;SDS011;2361;49.540;8.390;2022-08-03T05:55:12;4.33;;;3.83;;
4694;SDS011;2361;49.540;8.390;2022-08-03T05:57:40;5.80;;;4.20;;
4694;SDS011;2361;49.540;8.390;2022-08-03T06:00:10;4.27;;;3.80;;
4694;SDS011;2361;49.540;8.390;2022-08-03T06:02:40;3.97;;;3.50;;
4694;SDS011;2361;49.540;8.390;2022-08-03T06:05:08;3.90;;;3.70;;
4694;SDS011;2361;49.540;8.390;2022-08-03T06:07:36;4.60;;;3.60;;
4694;SDS011;2361;49.540;8.390;2022-08-03T06:10:03;8.03;;;3.80;;
4694;SDS011;2361;49.540;8.390;2022-08-03T06:12:51;4.37;;;3.87;;
4694;SDS011;2361;49.540;8.390;2022-08-03T06:15:18;3.00;;;2.90;;
4694;SDS011;2361;49.540;8.390;2022-08-03T06:17:48;3.93;;;3.53;;
4694;SDS011;2361;49.540;8.390;2022-08-03T06:20:17;4.60;;;4.10;;
4694;SDS011;2361;49.540;8.390;2022-08-03T06:22:47;4.30;;;3.90;;
4694;SDS011;2361;49.540;8.390;2022-08-03T06:25:16;4.00;;;3.80;;
4694;SDS011;2361;49.540;8.390;2022-08-03T06:27:46;8.53;;;4.27;;
4694;SDS011;2361;49.540;8.390;2022-08-03T06:30:13;3.80;;;3.50;;
4694;SDS011;2361;49.540;8.390;2022-08-03T06:32:46;3.77;;;3.47;;
4694;SDS011;2361;49.540;8.390;2022-08-03T06:35:17;3.83;;;3.63;;
4694;SDS011;2361;49.540;8.390;2022-08-03T06:37:45;4.40;;;4.00;;
4694;SDS011;2361;49.540;8.390;2022-08-03T06:40:15;3.03;;;2.93;;
4694;SDS011;2361;49.540;8.390;2022-08-03T06:42:55;4.00;;;3.60;;
4694;SDS011;2361;49.540;8.390;2022-08-03T06:45:24;5.33;;;3.40;;
4694;SDS011;2361;49.540;8.390;2022-08-03T06:50:35;3.37;;;3.17;;
4694;SDS011;2361;49.540;8.390;2022-08-03T06:53:04;4.07;;;3.67;;
4694;SDS011;2361;49.540;8.390;2022-08-03T06:55:33;3.97;;;3.57;;
4694;SDS011;2361;49.540;8.390;2022-08-03T06:58:07;3.20;;;3.10;;
4694;SDS011;2361;49.540;8.390;2022-08-03T07:00:34;3.50;;;3.30;;
4694;SDS011;2361;49.540;8.390;2022-08-03T07:03:01;3.80;;;3.50;;
4694;SDS011;2361;49.540;8.390;2022-08-03T07:05:28;7.37;;;3.57;;
4694;SDS011;2361;49.540;8.390;2022-08-03T07:07:56;3.50;;;3.30;;
4694;SDS011;2361;49.540;8.390;2022-08-03T07:10:24;3.70;;;3.50;;
4694;SDS011;2361;49.540;8.390;2022-08-03T07:12:51;3.93;;;3.60;;
4694;SDS011;2361;49.540;8.390;2022-08-03T07:15:22;3.00;;;2.90;;
4694;SDS011;2361;49.540;8.390;2022-08-03T07:18:09;4.93;;;3.03;;
4694;SDS011;2361;49.540;8.390;2022-08-03T07:20:36;3.43;;;3.17;;
4694;SDS011;2361;49.540;8.390;2022-08-03T07:23:03;3.73;;;3.53;;
4694;SDS011;2361;49.540;8.390;2022-08-03T07:25:30;3.83;;;3.63;;
4694;SDS011;2361;49.540;8.390;2022-08-03T07:27:57;6.77;;;4.30;;
4694;SDS011;2361;49.540;8.390;2022-08-03T07:30:24;3.90;;;3.60;;
4694;SDS011;2361;49.540;8.390;2022-08-03T07:32:51;3.50;;;3.20;;
4694;SDS011;2361;49.540;8.390;2022-08-03T07:35:18;2.90;;;2.80;;
4694;SDS011;2361;49.540;8.390;2022-08-03T07:37:50;3.50;;;3.23;;
4694;SDS011;2361;49.540;8.390;2022-08-03T07:40:20;3.10;;;2.90;;
4694;SDS011;2361;49.540;8.390;2022-08-03T07:42:48;3.20;;;3.03;;
4694;SDS011;2361;49.540;8.390;2022-08-03T07:45:18;2.90;;;2.70;;
4694;SDS011;2361;49.540;8.390;2022-08-03T07:47:48;3.10;;;3.00;;
4694;SDS011;2361;49.540;8.390;2022-08-03T07:50:19;3.30;;;3.10;;
4694;SDS011;2361;49.540;8.390;2022-08-03T07:52:47;3.53;;;3.30;;
4694;SDS011;2361;49.540;8.390;2022-08-03T07:55:16;2.93;;;2.83;;
4694;SDS011;2361;49.540;8.390;2022-08-03T07:57:47;2.90;;;2.80;;
4694;SDS011;2361;49.540;8.390;2022-08-03T08:00:34;3.57;;;3.37;;
4694;SDS011;2361;49.540;8.390;2022-08-03T08:03:02;2.97;;;2.77;;
4694;SDS011;2361;49.540;8.390;2022-08-03T08:05:29;2.93;;;2.83;;
4694;SDS011;2361;49.540;8.390;2022-08-03T08:07:57;3.30;;;3.10;;
4694;SDS011;2361;49.540;8.390;2022-08-03T08:10:24;2.77;;;2.60;;
4694;SDS011;2361;49.540;8.390;2022-08-03T08:12:51;3.40;;;3.10;;
4694;SDS011;2361;49.540;8.390;2022-08-03T08:15:18;6.70;;;2.90;;
4694;SDS011;2361;49.540;8.390;2022-08-03T08:20:20;3.40;;;3.20;;
4694;SDS011;2361;49.540;8.390;2022-08-03T08:22:57;3.50;;;3.30;;
4694;SDS011;2361;49.540;8.390;2022-08-03T08:25:28;4.17;;;3.10;;
4694;SDS011;2361;49.540;8.390;2022-08-03T08:27:57;4.20;;;3.80;;
4694;SDS011;2361;49.540;8.390;2022-08-03T08:30:49;3.20;;;3.10;;
4694;SDS011;2361;49.540;8.390;2022-08-03T08:33:16;6.17;;;3.10;;
4694;SDS011;2361;49.540;8.390;2022-08-03T08:35:48;3.57;;;3.37;;
4694;SDS011;2361;49.540;8.390;2022-08-03T08:38:17;3.37;;;3.23;;
4694;SDS011;2361;49.540;8.390;2022-08-03T08:40:44;3.20;;;3.03;;
4694;SDS011;2361;49.540;8.390;2022-08-03T08:43:11;3.33;;;3.13;;
4694;SDS011;2361;49.540;8.390;2022-08-03T08:45:39;6.90;;;3.80;;
4694;SDS011;2361;49.540;8.390;2022-08-03T08:48:06;3.83;;;3.53;;
4694;SDS011;2361;49.540;8.390;2022-08-03T08:50:36;3.60;;;3.30;;
4694;SDS011;2361;49.540;8.390;2022-08-03T08:53:04;5.87;;;3.47;;
4694;SDS011;2361;49.540;8.390;2022-08-03T08:55:40;4.90;;;3.63;;
4694;SDS011;2361;49.540;8.390;2022-08-03T08:58:25;8.53;;;3.40;;
4694;SDS011;2361;49.540;8.390;2022-08-03T09:00:56;3.60;;;3.37;;
4694;SDS011;2361;49.540;8.390;2022-08-03T09:03:23;3.83;;;3.53;;
4694;SDS011;2361;49.540;8.390;2022-08-03T09:05:55;3.83;;;3.53;;
4694;SDS011;2361;49.540;8.390;2022-08-03T09:08:25;4.37;;;4.00;;
4694;SDS011;2361;49.540;8.390;2022-08-03T09:10:52;3.80;;;3.40;;
4694;SDS011;2361;49.540;8.390;2022-08-03T09:13:19;3.20;;;3.00;;
4694;SDS011;2361;49.540;8.390;2022-08-03T09:15:46;7.30;;;3.13;;
4694;SDS011;2361;49.540;8.390;2022-08-03T09:18:29;4.57;;;3.57;;
4694;SDS011;2361;49.540;8.390;2022-08-03T09:23:58;4.07;;;3.40;;
4694;SDS011;2361;49.540;8.390;2022-08-03T09:26:30;3.43;;;3.20;;
4694;SDS011;2361;49.540;8.390;2022-08-03T09:31:39;3.83;;;3.40;;
4694;SDS011;2361;49.540;8.390;2022-08-03T09:34:10;3.77;;;3.47;;
4694;SDS011;2361;49.540;8.390;2022-08-03T09:36:41;9.77;;;3.73;;
4694;SDS011;2361;49.540;8.390;2022-08-03T09:42:11;3.13;;;3.00;;
4694;SDS011;2361;49.540;8.390;2022-08-03T09:44:44;3.60;;;3.30;;
4694;SDS011;2361;49.540;8.390;2022-08-03T09:47:14;3.70;;;3.10;;
4694;SDS011;2361;49.540;8.390;2022-08-03T09:50:00;3.10;;;3.00;;
4694;SDS011;2361;49.540;8.390;2022-08-03T09:52:32;4.20;;;3.10;;
4694;SDS011;2361;49.540;8.390;2022-08-03T09:55:17;3.20;;;3.00;;
4694;SDS011;2361;49.540;8.390;2022-08-03T09:58:08;4.03;;;3.07;;
4694;SDS011;2361;49.540;8.390;2022-08-03T10:03:56;3.20;;;3.00;;
4694;SDS011;2361;49.540;8.390;2022-08-03T10:06:29;4.50;;;4.03;;
4694;SDS011;2361;49.540;8.390;2022-08-03T10:09:10;4.13;;;3.87;;
4694;SDS011;2361;49.540;8.390;2022-08-03T10:11:42;3.47;;;3.17;;
4694;SDS011;2361;49.540;8.390;2022-08-03T10:14:11;4.37;;;3.40;;
4694;SDS011;2361;49.540;8.390;2022-08-03T10:16:45;5.43;;;3.30;;
4694;SDS011;2361;49.540;8.390;2022-08-03T10:19:13;5.00;;;3.60;;
4694;SDS011;2361;49.540;8.390;2022-08-03T10:21:45;3.33;;;3.17;;
4694;SDS011;2361;49.540;8.390;2022-08-03T10:24:23;3.33;;;3.13;;
4694;SDS011;2361;49.540;8.390;2022-08-03T10:26:52;3.60;;;3.40;;
4694;SDS011;2361;49.540;8.390;2022-08-03T10:29:31;4.33;;;3.40;;
4694;SDS011;2361;49.540;8.390;2022-08-03T10:32:17;3.93;;;3.60;;
4694;SDS011;2361;49.540;8.390;2022-08-03T10:35:19;3.73;;;2.93;;
4694;SDS011;2361;49.540;8.390;2022-08-03T10:37:51;3.60;;;3.30;;
4694;SDS011;2361;49.540;8.390;2022-08-03T10:40:31;3.63;;;3.33;;
4694;SDS011;2361;49.540;8.390;2022-08-03T10:43:20;4.10;;;3.00;;
4694;SDS011;2361;49.540;8.390;2022-08-03T10:45:54;3.63;;;3.43;;
4694;SDS011;2361;49.540;8.390;2022-08-03T10:48:21;7.40;;;6.73;;
4694;SDS011;2361;49.540;8.390;2022-08-03T10:50:49;6.10;;;4.77;;
4694;SDS011;2361;49.540;8.390;2022-08-03T10:53:32;3.80;;;3.07;;
4694;SDS011;2361;49.540;8.390;2022-08-03T10:56:01;3.40;;;3.10;;
4694;SDS011;2361;49.540;8.390;2022-08-03T10:59:08;3.70;;;3.43;;
4694;SDS011;2361;49.540;8.390;2022-08-03T11:01:51;2.80;;;2.70;;
4694;SDS011;2361;49.540;8.390;2022-08-03T11:04:26;5.40;;;3.40;;
4694;SDS011;2361;49.540;8.390;2022-08-03T11:09:41;2.83;;;2.73;;
4694;SDS011;2361;49.540;8.390;2022-08-03T11:12:22;2.80;;;2.70;;
4694;SDS011;2361;49.540;8.390;2022-08-03T11:15:06;3.33;;;3.03;;
4694;SDS011;2361;49.540;8.390;2022-08-03T11:17:34;3.40;;;3.07;;
4694;SDS011;2361;49.540;8.390;2022-08-03T11:23:14;2.53;;;2.40;;
4694;SDS011;2361;49.540;8.390;2022-08-03T11:28:44;3.20;;;3.00;;
4694;SDS011;2361;49.540;8.390;2022-08-03T11:34:09;2.63;;;2.53;;
4694;SDS011;2361;49.540;8.390;2022-08-03T11:39:48;2.57;;;2.47;;
4694;SDS011;2361;49.540;8.390;2022-08-03T11:47:26;2.90;;;2.70;;
4694;SDS011;2361;49.540;8.390;2022-08-03T11:49:55;4.00;;;3.73;;
4694;SDS011;2361;49.540;8.390;2022-08-03T11:52:25;2.57;;;2.47;;
4694;SDS011;2361;49.540;8.390;2022-08-03T11:55:00;2.20;;;2.10;;
4694;SDS011;2361;49.540;8.390;2022-08-03T11:57:30;2.10;;;2.03;;
4694;SDS011;2361;49.540;8.390;2022-08-03T12:00:22;2.50;;;2.40;;
4694;SDS011;2361;49.540;8.390;2022-08-03T12:02:55;2.50;;;2.40;;
4694;SDS011;2361;49.540;8.390;2022-08-03T12:05:38;2.40;;;2.20;;
4694;SDS011;2361;49.540;8.390;2022-08-03T12:10:58;2.40;;;2.30;;
4694;SDS011;2361;49.540;8.390;2022-08-03T12:13:42;3.17;;;2.97;;
4694;SDS011;2361;49.540;8.390;2022-08-03T12:16:34;2.80;;;2.60;;
4694;SDS011;2361;49.540;8.390;2022-08-03T12:19:03;5.30;;;4.90;;
4694;SDS011;2361;49.540;8.390;2022-08-03T12:21:32;2.13;;;1.90;;
4694;SDS011;2361;49.540;8.390;2022-08-03T12:24:02;2.47;;;2.37;;
4694;SDS011;2361;49.540;8.390;2022-08-03T12:26:41;3.30;;;2.20;;
4694;SDS011;2361;49.540;8.390;2022-08-03T12:29:24;1.90;;;1.90;;
4694;SDS011;2361;49.540;8.390;2022-08-03T12:31:51;3.20;;;1.90;;
4694;SDS011;2361;49.540;8.390;2022-08-03T12:34:18;7.10;;;5.33;;
4694;SDS011;2361;49.540;8.390;2022-08-03T12:36:49;20.03;;;15.50;;
4694;SDS011;2361;49.540;8.390;2022-08-03T12:39:21;11.23;;;9.60;;
4694;SDS011;2361;49.540;8.390;2022-08-03T12:41:54;3.90;;;2.00;;
4694;SDS011;2361;49.540;8.390;2022-08-03T12:44:28;2.37;;;2.27;;
4694;SDS011;2361;49.540;8.390;2022-08-03T12:47:01;2.27;;;2.17;;
4694;SDS011;2361;49.540;8.390;2022-08-03T12:49:43;2.77;;;2.57;;
4694;SDS011;2361;49.540;8.390;2022-08-03T12:52:15;2.17;;;2.07;;
4694;SDS011;2361;49.540;8.390;2022-08-03T12:54:56;2.07;;;1.97;;
4694;SDS011;2361;49.540;8.390;2022-08-03T12:57:25;2.30;;;2.20;;
4694;SDS011;2361;49.540;8.390;2022-08-03T13:00:11;1.67;;;1.67;;
4694;SDS011;2361;49.540;8.390;2022-08-03T13:03:12;2.40;;;1.87;;
4694;SDS011;2361;49.540;8.390;2022-08-03T13:05:59;2.50;;;2.30;;
4694;SDS011;2361;49.540;8.390;2022-08-03T13:08:26;2.60;;;2.40;;
4694;SDS011;2361;49.540;8.390;2022-08-03T13:10:53;2.53;;;2.43;;
4694;SDS011;2361;49.540;8.390;2022-08-03T13:13:38;2.40;;;2.30;;
4694;SDS011;2361;49.540;8.390;2022-08-03T13:16:06;7.50;;;2.20;;
4694;SDS011;2361;49.540;8.390;2022-08-03T13:18:32;2.00;;;2.00;;
4694;SDS011;2361;49.540;8.390;2022-08-03T13:20:59;2.17;;;2.10;;
4694;SDS011;2361;49.540;8.390;2022-08-03T13:23:27;7.43;;;2.90;;
4694;SDS011;2361;49.540;8.390;2022-08-03T13:25:54;4.57;;;3.10;;
4694;SDS011;2361;49.540;8.390;2022-08-03T13:28:21;2.23;;;2.13;;
4694;SDS011;2361;49.540;8.390;2022-08-03T13:30:48;2.20;;;2.10;;
4694;SDS011;2361;49.540;8.390;2022-08-03T13:33:15;2.23;;;2.13;;
4694;SDS011;2361;49.540;8.390;2022-08-03T13:35:42;2.00;;;2.00;;
4694;SDS011;2361;49.540;8.390;2022-08-03T13:38:09;2.07;;;1.97;;
4694;SDS011;2361;49.540;8.390;2022-08-03T13:40:36;2.17;;;2.07;;
4694;SDS011;2361;49.540;8.390;2022-08-03T13:43:07;2.50;;;2.40;;
4694;SDS011;2361;49.540;8.390;2022-08-03T13:45:34;13.40;;;2.27;;
4694;SDS011;2361;49.540;8.390;2022-08-03T13:48:01;2.10;;;2.00;;
4694;SDS011;2361;49.540;8.390;2022-08-03T13:50:28;2.60;;;2.30;;
4694;SDS011;2361;49.540;8.390;2022-08-03T13:52:56;9.50;;;8.17;;
4694;SDS011;2361;49.540;8.390;2022-08-03T13:55:23;3.37;;;3.17;;
4694;SDS011;2361;49.540;8.390;2022-08-03T13:57:50;6.43;;;5.83;;
4694;SDS011;2361;49.540;8.390;2022-08-03T14:00:32;4.93;;;2.10;;
4694;SDS011;2361;49.540;8.390;2022-08-03T14:03:00;1.90;;;1.80;;
4694;SDS011;2361;49.540;8.390;2022-08-03T14:05:40;3.27;;;2.17;;
4694;SDS011;2361;49.540;8.390;2022-08-03T14:08:08;1.87;;;1.80;;
4694;SDS011;2361;49.540;8.390;2022-08-03T14:10:36;1.70;;;1.70;;
4694;SDS011;2361;49.540;8.390;2022-08-03T14:13:07;1.73;;;1.63;;
4694;SDS011;2361;49.540;8.390;2022-08-03T14:15:43;1.50;;;1.40;;
4694;SDS011;2361;49.540;8.390;2022-08-03T14:18:16;3.90;;;2.10;;
4694;SDS011;2361;49.540;8.390;2022-08-03T14:20:59;1.90;;;1.80;;
4694;SDS011;2361;49.540;8.390;2022-08-03T14:23:32;1.93;;;1.83;;
4694;SDS011;2361;49.540;8.390;2022-08-03T14:26:01;2.03;;;1.93;;
4694;SDS011;2361;49.540;8.390;2022-08-03T14:28:30;1.73;;;1.73;;
4694;SDS011;2361;49.540;8.390;2022-08-03T14:30:57;1.40;;;1.33;;
4694;SDS011;2361;49.540;8.390;2022-08-03T14:33:24;1.60;;;1.60;;
4694;SDS011;2361;49.540;8.390;2022-08-03T14:35:53;1.60;;;1.60;;
4694;SDS011;2361;49.540;8.390;2022-08-03T14:38:21;1.67;;;1.67;;
4694;SDS011;2361;49.540;8.390;2022-08-03T14:40:48;1.40;;;1.30;;
4694;SDS011;2361;49.540;8.390;2022-08-03T14:43:16;3.63;;;2.00;;
4694;SDS011;2361;49.540;8.390;2022-08-03T14:45:45;1.90;;;1.90;;
4694;SDS011;2361;49.540;8.390;2022-08-03T14:48:13;1.40;;;1.40;;
4694;SDS011;2361;49.540;8.390;2022-08-03T14:51:00;1.80;;;1.70;;
4694;SDS011;2361;49.540;8.390;2022-08-03T14:53:27;1.60;;;1.50;;
4694;SDS011;2361;49.540;8.390;2022-08-03T14:55:55;1.77;;;1.67;;
4694;SDS011;2361;49.540;8.390;2022-08-03T14:58:22;1.77;;;1.67;;
4694;SDS011;2361;49.540;8.390;2022-08-03T15:00:54;1.57;;;1.57;;
4694;SDS011;2361;49.540;8.390;2022-08-03T15:03:22;1.80;;;1.70;;
4694;SDS011;2361;49.540;8.390;2022-08-03T15:05:59;2.93;;;1.60;;
4694;SDS011;2361;49.540;8.390;2022-08-03T15:08:26;1.90;;;1.90;;
4694;SDS011;2361;49.540;8.390;2022-08-03T15:10:53;1.67;;;1.57;;
4694;SDS011;2361;49.540;8.390;2022-08-03T15:13:20;1.80;;;1.53;;
4694;SDS011;2361;49.540;8.390;2022-08-03T15:15:48;1.53;;;1.43;;
4694;SDS011;2361;49.540;8.390;2022-08-03T15:18:16;1.77;;;1.77;;
4694;SDS011;2361;49.540;8.390;2022-08-03T15:20:45;1.80;;;1.70;;
4694;SDS011;2361;49.540;8.390;2022-08-03T15:23:14;2.10;;;2.00;;
4694;SDS011;2361;49.540;8.390;2022-08-03T15:25:42;2.10;;;2.00;;
4694;SDS011;2361;49.540;8.390;2022-08-03T15:28:30;1.73;;;1.73;;
4694;SDS011;2361;49.540;8.390;2022-08-03T15:30:58;1.70;;;1.60;;
4694;SDS011;2361;49.540;8.390;2022-08-03T15:33:25;1.97;;;1.87;;
4694;SDS011;2361;49.540;8.390;2022-08-03T15:35:53;1.90;;;1.80;;
4694;SDS011;2361;49.540;8.390;2022-08-03T15:38:20;2.03;;;1.93;;
4694;SDS011;2361;49.540;8.390;2022-08-03T15:40:51;6.93;;;1.87;;
4694;SDS011;2361;49.540;8.390;2022-08-03T15:43:20;4.87;;;2.30;;
4694;SDS011;2361;49.540;8.390;2022-08-03T15:45:48;2.67;;;2.40;;
4694;SDS011;2361;49.540;8.390;2022-08-03T15:48:35;1.97;;;1.87;;
4694;SDS011;2361;49.540;8.390;2022-08-03T15:51:02;2.10;;;2.00;;
4694;SDS011;2361;49.540;8.390;2022-08-03T15:53:30;1.80;;;1.80;;
4694;SDS011;2361;49.540;8.390;2022-08-03T15:55:59;2.00;;;1.90;;
4694;SDS011;2361;49.540;8.390;2022-08-03T15:58:31;2.00;;;1.90;;
4694;SDS011;2361;49.540;8.390;2022-08-03T16:01:18;1.70;;;1.70;;
4694;SDS011;2361;49.540;8.390;2022-08-03T16:03:46;1.80;;;1.70;;
4694;SDS011;2361;49.540;8.390;2022-08-03T16:06:13;2.17;;;2.07;;
4694;SDS011;2361;49.540;8.390;2022-08-03T16:08:40;2.40;;;2.30;;
4694;SDS011;2361;49.540;8.390;2022-08-03T16:11:07;1.83;;;1.73;;
4694;SDS011;2361;49.540;8.390;2022-08-03T16:13:34;1.90;;;1.80;;
4694;SDS011;2361;49.540;8.390;2022-08-03T16:16:21;1.70;;;1.60;;
4694;SDS011;2361;49.540;8.390;2022-08-03T16:18:48;1.80;;;1.70;;
4694;SDS011;2361;49.540;8.390;2022-08-03T16:21:15;1.43;;;1.43;;
4694;SDS011;2361;49.540;8.390;2022-08-03T16:23:46;4.40;;;2.30;;
4694;SDS011;2361;49.540;8.390;2022-08-03T16:26:16;2.00;;;2.00;;
4694;SDS011;2361;49.540;8.390;2022-08-03T16:28:44;2.40;;;2.30;;
4694;SDS011;2361;49.540;8.390;2022-08-03T16:31:11;2.93;;;2.83;;
4694;SDS011;2361;49.540;8.390;2022-08-03T16:33:38;5.07;;;4.70;;
4694;SDS011;2361;49.540;8.390;2022-08-03T16:36:05;6.40;;;5.80;;
4694;SDS011;2361;49.540;8.390;2022-08-03T16:38:32;2.30;;;2.20;;